Seabeck, WA (98380)

12:38 AM PDT on October 01, 2014 (GMT -0700)
Seabeck Heights, 7153 Windflower Pl NW | Change Station
CLOSE
Current Station
Personal Weather Station
Location: Seabeck, WA
Elevation: 310 ft
Nearby Weather Stations

Elev 310 ft 47.63 °N, 122.83 °W | Updated 10 minutes ago

Partly Cloudy
Partly Cloudy
48.6 °F
Feels Like 49 °F
N
0.0
Wind Variable Wind from South

Today
High -- | Low -- °F
--% Chance of Precip.
Yesterday
High -- | Low -- °F
Precip. -- in
7:10 AM 6:50 PM
Waxing Crescent, 45% visible
Pressure 30.19 in
Visibility 10.0 miles
Clouds Scattered Clouds 4500 ft
Windchill 49 °F
Dew Point 48 °F
Humidity 98%
Rainfall 0.00 in
Snow Depth Not available.
UV 0 out of 12
Pollen .40 out of 12
Air Quality Not available.
Flu Activity Not available.
METAR KPWT 010655Z AUTO 06003KT 10SM SCT045 08/08 A3019 RMK AO1

More Conditions Fewer Conditions

Pressure 30.19 in
Visibility 10.0 miles
Clouds Scattered Clouds 4500 ft
Windchill 49 °F
Dew Point 48 °F
Humidity 98%
Rainfall 0.00 in
Snow Depth Not available.
UV 0 out of 12
Pollen .40 out of 12
Air Quality Not available.
Flu Activity Not available.
METAR KPWT 010655Z AUTO 06003KT 10SM SCT045 08/08 A3019 RMK AO1

More Conditions Fewer Conditions

10-Day Weather Forecast

Almanac

Astronomy

Oct. 01, 2014 Rise Set
Actual Time 7:10 AM PDT 6:50 PM PDT
Civil Twilight 6:39 AM PDT 7:21 PM PDT
Nautical Twilight 6:04 AM PDT 7:56 PM PDT
Astronomical Twilight 5:27 AM PDT 8:33 PM PDT
Moon 2:34 PM PDT No Moon Set
Length of Visible Light 12h 41m
Length of Day
11h 39m
Tomorrow will be 3m 24s shorter.
Waxing Crescent, 45% of the Moon is Illuminated
Today
Waxing Crescent
Oct 1
First Quarter
Oct 8
Full
Oct 15
Last Quarter
Oct 23
New

Community

WunderPhotos

Upload Photos

1,757,898 photos uploaded!

Nearby

Air Quality

  Air Quality AQ Index Pollutant
Tuesday Good
PM2.5
Wednesday Good
PM2.5
Thursday Good
PM2.5
Friday Good
PM2.5
Saturday Good
PM2.5

Snow Depth

Station Depth Elevation
Swift Creek 0 in 3770 ft
Burnt Mountain 0 in 4200 ft
Harts Pass 0 in 6500 ft
Dungeness 0 in 4100 ft
Wells Creek 0 in 4200 ft

Earthquake Activity

City Distance Mag. Time & Date
No recent earthquake activity has been reported nearby.
Minimum magnitude displayed is 2.5.

Coastal Water Temperatures

Place Temperature
Port Townsend, WA 52.0 °F
Seattle, WA 55.0 °F
Friday Harbor, WA 51.1 °F
Tacoma, WA 55.0 °F

Nearby Weather Stations